createdAt,value
2022-07-27T00:01:14.345Z,99.90
2022-07-27T00:03:43.279Z,99.90
2022-07-27T00:06:12.017Z,99.90
2022-07-27T00:08:40.394Z,99.90
2022-07-27T00:11:09.786Z,99.90
2022-07-27T00:13:40.782Z,99.90
2022-07-27T00:16:09.629Z,99.90
2022-07-27T00:18:38.100Z,99.90
2022-07-27T00:21:06.422Z,99.90
2022-07-27T00:23:35.274Z,99.90
2022-07-27T00:26:03.608Z,99.90
2022-07-27T00:28:32.641Z,99.90
2022-07-27T00:31:02.324Z,99.90
2022-07-27T00:33:30.798Z,99.90
2022-07-27T00:35:59.040Z,99.90
2022-07-27T00:38:27.397Z,99.90
2022-07-27T00:40:55.893Z,99.90
2022-07-27T00:43:24.174Z,99.90
2022-07-27T00:45:52.430Z,99.90
2022-07-27T00:48:22.135Z,99.90
2022-07-27T00:50:52.734Z,99.90
2022-07-27T00:53:21.584Z,99.90
2022-07-27T00:55:49.863Z,99.90
2022-07-27T00:58:18.466Z,99.90
2022-07-27T01:00:47.321Z,99.90
2022-07-27T01:03:16.230Z,99.90
2022-07-27T01:05:46.571Z,99.90
2022-07-27T01:08:16.443Z,99.90
2022-07-27T01:10:45.375Z,99.90
2022-07-27T01:13:14.412Z,99.90
2022-07-27T01:15:43.764Z,99.90
2022-07-27T01:18:13.940Z,99.90
2022-07-27T01:20:42.894Z,99.90
2022-07-27T01:23:12.675Z,99.90
2022-07-27T01:25:43.863Z,99.90
2022-07-27T01:28:12.103Z,99.90
2022-07-27T01:30:40.365Z,99.90
2022-07-27T01:33:09.566Z,99.90
2022-07-27T01:35:38.926Z,99.90
2022-07-27T01:38:08.191Z,99.90
2022-07-27T01:40:39.634Z,99.90
2022-07-27T01:43:08.269Z,99.90
2022-07-27T01:45:36.575Z,99.90
2022-07-27T01:48:05.150Z,99.90
2022-07-27T01:50:33.508Z,99.90
2022-07-27T01:53:01.845Z,99.90
2022-07-27T01:55:38.645Z,99.90
2022-07-27T01:58:10.311Z,99.90
2022-07-27T02:00:39.635Z,99.90
2022-07-27T02:03:10.356Z,99.90
2022-07-27T02:05:39.969Z,99.90
2022-07-27T02:08:08.856Z,99.90
2022-07-27T02:10:58.215Z,99.90
2022-07-27T02:13:27.099Z,99.90
2022-07-27T02:15:57.117Z,99.90
2022-07-27T02:18:33.014Z,99.90
2022-07-27T02:21:05.995Z,99.90
2022-07-27T02:23:34.845Z,99.90
2022-07-27T02:26:03.233Z,99.90
2022-07-27T02:28:33.274Z,99.90
2022-07-27T02:31:01.739Z,99.90
2022-07-27T02:33:30.169Z,99.90
2022-07-27T02:35:58.484Z,99.90
2022-07-27T02:38:26.971Z,99.90
2022-07-27T02:40:55.397Z,99.90
2022-07-27T02:43:23.624Z,99.90
2022-07-27T02:45:53.342Z,99.90
2022-07-27T02:48:21.717Z,99.90
2022-07-27T02:50:50.028Z,99.90
2022-07-27T02:53:18.344Z,99.90
2022-07-27T02:55:46.582Z,99.90
2022-07-27T02:58:14.874Z,99.90
2022-07-27T03:00:43.188Z,99.90
2022-07-27T03:03:12.840Z,99.90
2022-07-27T03:05:41.179Z,99.90
2022-07-27T03:08:09.881Z,99.90
2022-07-27T03:10:38.162Z,99.90
2022-07-27T03:13:06.551Z,99.90
2022-07-27T03:15:35.500Z,99.90
2022-07-27T03:18:04.123Z,99.90
2022-07-27T03:20:33.875Z,99.90
2022-07-27T03:23:02.210Z,99.90
2022-07-27T03:25:30.644Z,99.90
2022-07-27T03:28:03.808Z,99.90
2022-07-27T03:30:32.865Z,99.90
2022-07-27T03:33:01.302Z,99.90
2022-07-27T03:35:29.665Z,99.90
2022-07-27T03:37:59.431Z,99.90
2022-07-27T03:40:29.397Z,99.90
2022-07-27T03:42:57.925Z,99.90
2022-07-27T03:45:26.468Z,99.90
2022-07-27T03:47:55.285Z,99.90
2022-07-27T03:50:24.325Z,99.90
2022-07-27T03:52:53.083Z,99.90
2022-07-27T03:55:22.884Z,99.90
2022-07-27T03:57:52.469Z,99.90
2022-07-27T04:00:20.841Z,99.90
2022-07-27T04:02:49.393Z,99.90
2022-07-27T04:05:17.761Z,99.90
2022-07-27T04:07:46.010Z,99.90
2022-07-27T04:10:14.312Z,99.90
2022-07-27T04:12:43.962Z,99.90
2022-07-27T04:15:14.969Z,99.90
2022-07-27T04:17:55.569Z,99.90
2022-07-27T04:20:26.124Z,99.90
2022-07-27T04:22:54.385Z,99.90
2022-07-27T04:25:22.789Z,99.90
2022-07-27T04:27:54.646Z,99.90
2022-07-27T04:30:23.632Z,99.90
2022-07-27T04:32:52.143Z,99.90
2022-07-27T04:35:25.922Z,99.90
2022-07-27T04:37:58.374Z,99.90
2022-07-27T04:40:31.825Z,99.90
2022-07-27T04:43:02.418Z,99.90
2022-07-27T04:45:30.988Z,99.90
2022-07-27T04:47:59.695Z,99.90
2022-07-27T04:50:27.959Z,99.90
2022-07-27T04:52:59.936Z,99.90
2022-07-27T04:55:28.164Z,99.90
2022-07-27T04:57:56.459Z,99.90
2022-07-27T05:00:26.309Z,99.90
2022-07-27T05:02:54.854Z,99.90
2022-07-27T05:05:23.270Z,99.90
2022-07-27T05:07:51.514Z,99.90
2022-07-27T05:10:20.727Z,99.90
2022-07-27T05:12:49.991Z,99.90
2022-07-27T05:15:18.767Z,99.90
2022-07-27T05:17:48.578Z,99.90
2022-07-27T05:20:16.982Z,99.90
2022-07-27T05:22:45.688Z,99.90
2022-07-27T05:25:14.286Z,99.90
2022-07-27T05:27:53.976Z,99.90
2022-07-27T05:30:24.498Z,99.90
2022-07-27T05:32:54.815Z,99.90
2022-07-27T05:35:23.600Z,99.90
2022-07-27T05:37:51.885Z,99.90
2022-07-27T05:40:20.687Z,99.90
2022-07-27T05:42:49.015Z,99.60
2022-07-27T05:45:17.524Z,99.70
2022-07-27T05:47:45.789Z,99.00
2022-07-27T05:50:16.262Z,98.70
2022-07-27T05:52:44.887Z,98.90
2022-07-27T05:55:14.068Z,97.50
2022-07-27T05:57:42.927Z,99.20
2022-07-27T06:00:12.858Z,99.90
2022-07-27T06:02:41.406Z,99.90
2022-07-27T06:05:15.025Z,99.90
2022-07-27T06:07:59.349Z,99.90
2022-07-27T06:10:29.031Z,99.90
2022-07-27T06:12:57.441Z,99.90
2022-07-27T06:15:26.224Z,99.90
2022-07-27T06:17:55.616Z,99.90
2022-07-27T06:20:25.463Z,99.90
2022-07-27T06:22:57.360Z,99.90
2022-07-27T06:25:34.217Z,99.90
2022-07-27T06:28:04.350Z,99.90
2022-07-27T06:30:33.169Z,99.90
2022-07-27T06:33:01.746Z,99.90
2022-07-27T06:35:29.987Z,99.90
2022-07-27T06:38:00.628Z,99.90
2022-07-27T06:40:30.062Z,99.90
2022-07-27T06:42:58.776Z,99.90
2022-07-27T06:45:27.133Z,99.90
2022-07-27T06:47:55.448Z,99.90
2022-07-27T06:50:24.496Z,99.90
2022-07-27T06:52:52.875Z,99.90
2022-07-27T06:55:22.726Z,99.90
2022-07-27T06:57:50.980Z,99.90
2022-07-27T07:00:19.276Z,99.90
2022-07-27T07:02:55.453Z,99.90
2022-07-27T07:05:24.215Z,99.90
2022-07-27T07:07:53.368Z,99.90
2022-07-27T07:10:24.410Z,99.90
2022-07-27T07:12:55.781Z,99.90
2022-07-27T07:15:26.343Z,99.90
2022-07-27T07:17:55.080Z,99.90
2022-07-27T07:20:24.038Z,99.90
2022-07-27T07:22:52.650Z,99.90
2022-07-27T07:25:22.466Z,99.90
2022-07-27T07:27:50.899Z,99.90
2022-07-27T07:30:19.530Z,99.90
2022-07-27T07:32:48.020Z,99.90
2022-07-27T07:35:16.645Z,99.90
2022-07-27T07:37:45.136Z,99.90
2022-07-27T07:40:41.961Z,99.90
2022-07-27T07:43:08.658Z,99.90
2022-07-27T07:45:50.782Z,99.90
2022-07-27T07:48:21.214Z,99.90
2022-07-27T07:50:51.896Z,99.90
2022-07-27T07:53:21.353Z,99.90
2022-07-27T07:55:49.726Z,99.90
2022-07-27T07:58:19.379Z,99.90
2022-07-27T08:00:47.719Z,99.90
2022-07-27T08:03:16.479Z,99.90
2022-07-27T08:05:45.170Z,99.90
2022-07-27T08:08:13.502Z,99.90
2022-07-27T08:10:41.839Z,99.90
2022-07-27T08:13:10.407Z,99.90
2022-07-27T08:15:40.126Z,99.90
2022-07-27T08:18:09.624Z,99.90
2022-07-27T08:20:37.946Z,99.90
2022-07-27T08:23:06.435Z,99.90
2022-07-27T08:25:34.766Z,99.90
2022-07-27T08:28:03.119Z,99.90
2022-07-27T08:30:32.944Z,99.90
2022-07-27T08:33:06.215Z,99.90
2022-07-27T08:35:35.727Z,99.90
2022-07-27T08:38:06.761Z,99.90
2022-07-27T08:40:42.120Z,99.90
2022-07-27T08:43:12.942Z,99.90
2022-07-27T08:45:44.239Z,99.90
2022-07-27T08:48:15.686Z,99.90
2022-07-27T08:50:44.055Z,99.90
2022-07-27T08:53:14.343Z,99.90
2022-07-27T08:55:44.091Z,99.90
2022-07-27T08:58:13.824Z,99.90
2022-07-27T09:00:45.003Z,99.90
2022-07-27T09:03:19.479Z,99.90
2022-07-27T09:05:50.380Z,99.90
2022-07-27T09:08:24.096Z,99.90
2022-07-27T09:10:55.250Z,99.90
2022-07-27T09:13:26.676Z,99.90
2022-07-27T09:16:18.063Z,99.90
2022-07-27T09:18:47.500Z,99.90
2022-07-27T09:21:18.014Z,97.20
2022-07-27T09:23:48.538Z,97.90
2022-07-27T09:26:31.746Z,97.50
2022-07-27T09:29:02.890Z,97.30
2022-07-27T09:31:31.558Z,97.20
2022-07-27T09:34:03.158Z,96.00
2022-07-27T09:36:32.335Z,96.60
2022-07-27T09:39:03.819Z,96.50
2022-07-27T09:41:43.486Z,96.50
2022-07-27T09:44:31.173Z,96.30
2022-07-27T09:47:00.526Z,96.50
2022-07-27T09:49:32.201Z,94.80
2022-07-27T09:52:02.630Z,94.80
2022-07-27T09:54:44.269Z,95.10
2022-07-27T09:57:12.813Z,95.50
2022-07-27T09:59:41.180Z,95.40
2022-07-27T10:02:09.701Z,96.10
2022-07-27T10:04:39.776Z,95.40
2022-07-27T10:07:13.109Z,95.00
2022-07-27T10:09:43.173Z,94.50
2022-07-27T10:12:11.845Z,94.50
2022-07-27T10:14:40.175Z,95.30
2022-07-27T10:17:10.904Z,94.30
2022-07-27T10:19:49.849Z,94.80
2022-07-27T10:22:18.277Z,93.10
2022-07-27T10:25:00.386Z,91.00
2022-07-27T10:27:30.858Z,92.10
2022-07-27T10:29:59.737Z,91.90
2022-07-27T10:32:31.179Z,92.60
2022-07-27T10:35:01.786Z,91.60
2022-07-27T10:37:31.924Z,91.60
2022-07-27T10:40:21.620Z,91.90
2022-07-27T10:42:54.496Z,91.70
2022-07-27T10:45:23.512Z,93.00
2022-07-27T10:47:53.537Z,92.20
2022-07-27T10:50:32.510Z,92.10
2022-07-27T10:53:06.700Z,92.00
2022-07-27T10:55:49.208Z,92.20
2022-07-27T10:58:50.138Z,92.60
2022-07-27T11:01:22.800Z,92.50
2022-07-27T11:03:56.145Z,92.00
2022-07-27T11:06:34.078Z,91.30
2022-07-27T11:11:59.900Z,92.00
2022-07-27T11:14:31.859Z,92.60
2022-07-27T11:17:24.425Z,91.20
2022-07-27T11:19:55.802Z,91.00
2022-07-27T11:23:40.684Z,90.20
2022-07-27T11:25:21.858Z,90.50
2022-07-27T11:27:51.422Z,91.00
2022-07-27T11:30:24.173Z,91.80
2022-07-27T11:32:52.452Z,91.20
2022-07-27T11:35:20.975Z,91.00
2022-07-27T11:38:01.472Z,90.60
2022-07-27T11:43:38.532Z,92.20
2022-07-27T11:46:14.721Z,91.40
2022-07-27T11:49:17.983Z,91.50
2022-07-27T11:51:47.736Z,92.10
2022-07-27T11:54:22.087Z,91.30
2022-07-27T11:56:52.298Z,90.90
2022-07-27T11:59:22.135Z,91.00
2022-07-27T12:01:52.950Z,90.50
2022-07-27T12:04:26.717Z,90.10
2022-07-27T12:07:01.720Z,90.30
2022-07-27T12:09:38.167Z,91.50
2022-07-27T12:12:15.373Z,90.90
2022-07-27T12:14:46.520Z,91.00
2022-07-27T12:17:18.992Z,90.40
2022-07-27T12:19:57.650Z,91.70
2022-07-27T12:22:32.532Z,90.50
2022-07-27T12:25:16.628Z,90.00
2022-07-27T12:27:56.510Z,90.10
2022-07-27T12:30:32.342Z,89.80
2022-07-27T12:33:01.163Z,89.80
2022-07-27T12:35:36.270Z,86.60
2022-07-27T12:38:07.907Z,85.10
2022-07-27T12:40:45.912Z,85.90
2022-07-27T12:43:18.465Z,86.60
2022-07-27T12:45:48.473Z,86.70
2022-07-27T12:48:21.391Z,86.00
2022-07-27T12:50:58.349Z,87.10
2022-07-27T12:53:26.841Z,86.50
2022-07-27T12:55:58.623Z,87.40
2022-07-27T12:58:26.992Z,88.90
2022-07-27T13:00:56.234Z,87.30
2022-07-27T13:03:24.655Z,83.90
2022-07-27T13:05:53.353Z,83.00
2022-07-27T13:08:21.892Z,83.00
2022-07-27T13:10:52.266Z,81.90
2022-07-27T13:13:24.853Z,84.40
2022-07-27T13:15:53.927Z,82.40
2022-07-27T13:18:23.901Z,79.50
2022-07-27T13:20:52.857Z,78.20
2022-07-27T13:23:21.988Z,78.40
2022-07-27T13:25:50.316Z,81.20
2022-07-27T13:28:18.702Z,80.00
2022-07-27T13:30:48.374Z,78.50
2022-07-27T13:33:16.706Z,82.70
2022-07-27T13:35:45.800Z,82.90
2022-07-27T13:38:16.735Z,82.90
2022-07-27T13:40:45.441Z,83.70
2022-07-27T13:43:13.677Z,85.40
2022-07-27T13:45:43.473Z,84.30
2022-07-27T13:48:13.527Z,82.10
2022-07-27T13:50:42.148Z,83.60
2022-07-27T13:53:14.973Z,81.30
2022-07-27T13:55:44.644Z,82.40
2022-07-27T13:58:13.352Z,82.20
2022-07-27T14:00:41.962Z,80.90
2022-07-27T14:03:11.299Z,81.00
2022-07-27T14:05:45.422Z,83.10
2022-07-27T14:08:18.831Z,79.30
2022-07-27T14:10:47.137Z,81.40
2022-07-27T14:13:17.227Z,81.40
2022-07-27T14:15:50.518Z,77.20
2022-07-27T14:18:22.374Z,77.70
2022-07-27T14:20:52.258Z,79.80
2022-07-27T14:23:21.050Z,80.20
2022-07-27T14:25:49.420Z,84.60
2022-07-27T14:28:17.657Z,83.30
2022-07-27T14:30:46.773Z,81.30
2022-07-27T14:33:15.105Z,80.60
2022-07-27T14:35:43.756Z,81.50
2022-07-27T14:38:14.146Z,84.40
2022-07-27T14:40:54.034Z,82.70
2022-07-27T14:43:23.206Z,84.00
2022-07-27T14:45:52.012Z,84.40
2022-07-27T14:48:36.774Z,84.20
2022-07-27T14:51:09.818Z,80.50
2022-07-27T14:53:39.476Z,81.10
2022-07-27T14:56:07.825Z,81.10
2022-07-27T14:58:36.107Z,80.00
2022-07-27T15:01:04.492Z,82.70
2022-07-27T15:03:33.032Z,81.20
2022-07-27T15:06:01.249Z,79.00
2022-07-27T15:08:29.788Z,77.60
2022-07-27T15:10:59.689Z,76.80
2022-07-27T15:13:28.003Z,76.60
2022-07-27T15:15:57.993Z,78.20
2022-07-27T15:18:26.455Z,75.90
2022-07-27T15:20:54.702Z,76.90
2022-07-27T15:23:23.229Z,80.10
2022-07-27T15:25:51.572Z,81.50
2022-07-27T15:28:21.250Z,82.80
2022-07-27T15:30:49.854Z,81.60
2022-07-27T15:33:18.204Z,82.00
2022-07-27T15:35:46.486Z,82.60
2022-07-27T15:38:14.768Z,82.30
2022-07-27T15:40:42.999Z,83.10
2022-07-27T15:43:13.351Z,84.20
2022-07-27T15:45:45.578Z,82.40
2022-07-27T15:48:14.547Z,84.20
2022-07-27T15:50:45.167Z,84.40
2022-07-27T15:53:14.726Z,82.90
2022-07-27T15:55:44.365Z,83.00
2022-07-27T15:58:13.983Z,80.50
2022-07-27T16:00:43.669Z,79.80
2022-07-27T16:03:14.787Z,80.40
2022-07-27T16:05:44.615Z,81.90
2022-07-27T16:08:12.897Z,81.60
2022-07-27T16:10:42.336Z,79.60
2022-07-27T16:13:12.752Z,80.80
2022-07-27T16:16:01.231Z,81.90
2022-07-27T16:18:32.920Z,79.20
2022-07-27T16:21:03.819Z,80.60
2022-07-27T16:23:32.063Z,80.50
2022-07-27T16:26:04.570Z,78.20
2022-07-27T16:28:36.613Z,77.20
2022-07-27T16:31:07.138Z,77.30
2022-07-27T16:33:35.511Z,77.80
2022-07-27T16:36:03.896Z,78.40
2022-07-27T16:38:32.234Z,79.10
2022-07-27T16:41:00.736Z,78.60
2022-07-27T16:43:38.652Z,79.20
2022-07-27T16:46:10.088Z,79.10
2022-07-27T16:48:42.546Z,78.50
2022-07-27T16:51:14.483Z,81.60
2022-07-27T16:53:45.019Z,80.90
2022-07-27T16:56:14.599Z,78.90
2022-07-27T16:58:43.451Z,79.90
2022-07-27T17:01:15.084Z,80.10
2022-07-27T17:03:51.335Z,79.80
2022-07-27T17:06:20.946Z,79.60
2022-07-27T17:08:49.623Z,78.70
2022-07-27T17:11:21.477Z,79.40
2022-07-27T17:13:50.941Z,79.00
2022-07-27T17:16:29.422Z,79.40
2022-07-27T17:18:57.899Z,80.00
2022-07-27T17:21:26.223Z,80.10
2022-07-27T17:23:54.563Z,80.80
2022-07-27T17:26:24.915Z,81.90
2022-07-27T17:28:53.964Z,82.30
2022-07-27T17:31:22.694Z,83.10
2022-07-27T17:33:53.552Z,82.30
2022-07-27T17:36:22.599Z,83.10
2022-07-27T17:38:52.107Z,81.90
2022-07-27T17:41:24.938Z,82.70
2022-07-27T17:43:53.795Z,82.20
2022-07-27T17:46:22.964Z,83.30
2022-07-27T17:48:53.886Z,81.80
2022-07-27T17:51:23.233Z,81.30
2022-07-27T17:53:51.682Z,81.10
2022-07-27T17:56:19.982Z,78.90
2022-07-27T17:58:48.487Z,77.10
2022-07-27T18:01:16.898Z,77.10
2022-07-27T18:03:45.265Z,78.30
2022-07-27T18:06:15.024Z,78.70
2022-07-27T18:08:44.569Z,80.40
2022-07-27T18:11:14.835Z,83.40
2022-07-27T18:13:43.245Z,85.40
2022-07-27T18:16:13.967Z,86.70
2022-07-27T18:18:43.571Z,87.90
2022-07-27T18:21:13.325Z,88.60
2022-07-27T18:23:43.031Z,89.50
2022-07-27T18:26:11.465Z,90.10
2022-07-27T18:28:40.385Z,90.20
2022-07-27T18:31:09.883Z,90.50
2022-07-27T18:33:40.361Z,90.60
2022-07-27T18:36:09.035Z,91.10
2022-07-27T18:38:38.110Z,91.10
2022-07-27T18:41:07.865Z,91.30
2022-07-27T18:43:36.167Z,91.50
2022-07-27T18:46:04.747Z,91.70
2022-07-27T18:48:33.191Z,91.90
2022-07-27T18:51:01.568Z,92.40
2022-07-27T18:53:29.900Z,92.50
2022-07-27T18:55:58.285Z,93.00
2022-07-27T18:58:28.652Z,93.10
2022-07-27T19:00:58.266Z,93.50
2022-07-27T19:03:27.961Z,93.60
2022-07-27T19:05:56.661Z,93.80
2022-07-27T19:08:25.116Z,94.10
2022-07-27T19:10:53.849Z,94.20
2022-07-27T19:13:22.294Z,95.10
2022-07-27T19:15:51.991Z,94.60
2022-07-27T19:18:20.347Z,95.20
2022-07-27T19:20:48.660Z,96.30
2022-07-27T19:23:17.111Z,96.00
2022-07-27T19:25:46.238Z,95.50
2022-07-27T19:28:18.933Z,95.50
2022-07-27T19:30:47.670Z,96.10
2022-07-27T19:33:17.750Z,96.70
2022-07-27T19:35:46.107Z,96.90
2022-07-27T19:38:14.418Z,96.80
2022-07-27T19:40:45.687Z,97.50
2022-07-27T19:43:15.257Z,97.20
2022-07-27T19:45:44.126Z,97.10
2022-07-27T19:48:12.494Z,97.40
2022-07-27T19:50:43.163Z,97.90
2022-07-27T19:53:11.434Z,97.60
2022-07-27T19:55:39.739Z,97.80
2022-07-27T19:58:08.293Z,98.10
2022-07-27T20:00:36.663Z,98.30
2022-07-27T20:03:05.240Z,98.90
2022-07-27T20:05:34.941Z,99.40
2022-07-27T20:08:04.972Z,99.60
2022-07-27T20:10:33.291Z,99.80
2022-07-27T20:13:02.706Z,99.90
2022-07-27T20:15:30.992Z,99.90
2022-07-27T20:17:59.722Z,99.90
2022-07-27T20:20:28.689Z,99.90
2022-07-27T20:22:57.073Z,99.90
2022-07-27T20:25:26.825Z,99.90
2022-07-27T20:27:55.229Z,99.90
2022-07-27T20:30:23.746Z,99.90
2022-07-27T20:32:52.066Z,99.90
2022-07-27T20:35:20.347Z,99.90
2022-07-27T20:37:48.655Z,99.90
2022-07-27T20:40:17.180Z,99.90
2022-07-27T20:42:47.124Z,99.90
2022-07-27T20:45:15.433Z,99.90
2022-07-27T20:47:44.279Z,99.90
2022-07-27T20:50:14.229Z,99.90
2022-07-27T20:52:43.348Z,99.90
2022-07-27T20:55:12.326Z,99.90
2022-07-27T20:57:40.767Z,99.90
2022-07-27T21:00:11.474Z,99.90
2022-07-27T21:02:40.308Z,99.90
2022-07-27T21:05:09.649Z,99.90
2022-07-27T21:07:37.938Z,99.90
2022-07-27T21:10:07.698Z,99.90
2022-07-27T21:12:36.257Z,99.90
2022-07-27T21:15:09.846Z,99.90
2022-07-27T21:17:43.138Z,99.90
2022-07-27T21:20:13.609Z,99.90
2022-07-27T21:22:42.954Z,99.90
2022-07-27T21:25:10.754Z,99.90
2022-07-27T21:27:42.141Z,99.90
2022-07-27T21:30:13.111Z,99.90
2022-07-27T21:32:42.868Z,99.90
2022-07-27T21:35:11.320Z,99.90
2022-07-27T21:37:39.559Z,99.90
2022-07-27T21:40:08.950Z,99.90
2022-07-27T21:42:37.241Z,99.90
2022-07-27T21:45:07.224Z,99.90
2022-07-27T21:47:35.509Z,99.90
2022-07-27T21:50:05.522Z,99.90
2022-07-27T21:52:33.864Z,99.90
2022-07-27T21:55:02.181Z,99.90
2022-07-27T21:57:30.471Z,99.90
2022-07-27T21:59:58.777Z,99.90
2022-07-27T22:02:28.386Z,99.90
2022-07-27T22:04:56.967Z,99.90
2022-07-27T22:07:26.743Z,99.90
2022-07-27T22:09:55.089Z,99.90
2022-07-27T22:12:23.334Z,99.90
2022-07-27T22:14:51.739Z,99.90
2022-07-27T22:17:20.079Z,99.90
2022-07-27T22:19:48.380Z,99.90
2022-07-27T22:22:16.774Z,99.90
2022-07-27T22:24:46.454Z,99.90
2022-07-27T22:27:14.759Z,99.90
2022-07-27T22:29:43.434Z,99.90
2022-07-27T22:32:11.858Z,99.90
2022-07-27T22:34:40.480Z,99.90
2022-07-27T22:37:08.760Z,99.90
2022-07-27T22:39:37.146Z,99.90
2022-07-27T22:42:10.020Z,99.90
2022-07-27T22:44:38.565Z,99.90
2022-07-27T22:47:07.345Z,99.90
2022-07-27T22:49:36.000Z,99.90
2022-07-27T22:52:05.236Z,99.90
2022-07-27T22:54:34.869Z,99.90
2022-07-27T22:57:03.451Z,99.90
2022-07-27T22:59:33.425Z,99.90
2022-07-27T23:02:02.064Z,99.90
2022-07-27T23:04:30.625Z,99.90
2022-07-27T23:06:59.403Z,99.90
2022-07-27T23:09:27.777Z,99.90
2022-07-27T23:11:56.882Z,99.90
2022-07-27T23:14:26.241Z,99.90
2022-07-27T23:16:55.867Z,99.90
2022-07-27T23:19:24.211Z,99.90
2022-07-27T23:21:57.496Z,99.90
2022-07-27T23:24:29.916Z,99.90
2022-07-27T23:26:58.297Z,99.90
2022-07-27T23:29:26.842Z,99.90
2022-07-27T23:31:56.721Z,99.90
2022-07-27T23:34:27.331Z,99.90
2022-07-27T23:36:55.613Z,99.90
2022-07-27T23:39:23.995Z,99.90
2022-07-27T23:41:52.304Z,99.90
2022-07-27T23:44:20.572Z,99.90
2022-07-27T23:46:48.890Z,99.90
2022-07-27T23:49:18.579Z,99.90
2022-07-27T23:51:46.998Z,99.90
2022-07-27T23:54:15.852Z,99.90
2022-07-27T23:56:44.337Z,99.90
2022-07-27T23:59:13.061Z,99.90
